モンロビア の空港の天気 - METARとTAF

モンロビア・ロバーツ国際空港 ( GLRB / ROB ) - リベリア モンロビア
飛行場実況気象(Metar)
観測時間10/23 13:00 GMT (10/23 13:00 UTC)
風向・風速南西 3m/s
視程10km以上
天気現象
全天の8割程度の雲 雲底高度 490m
少しの雲 雲底高度 760m
気温31℃
湿度75%
気圧1012hPa
METARGLRB 231300Z 23005KT 9999 BKN016 FEW025CB 31/26 Q1012 NOSIG RMK CB/SW-W
過去の天気等 Google飛行場航空写真 Wunderground天気予報

過去48時間のMETAR

飛行場予報(TAF)
発表時間: 10/23 11:00 GMT (10/23 11:00 UTC)
予報対象時間: 23日12時 GMT ~ 24日12時 GMT
風向・風速南西 5m/s
視程10km以上
全天の8割程度の雲 雲底高度 610m
23日15時 GMT ~ 23日19時 GMT に一時的に
全天の8割程度の雲 雲底高度 670m
少しの積乱雲 雲底高度 820m
23日21時 GMT ~ 23日23時 GMT に徐々に
風向・風速不定 1m/s
視程8000m
天気現象弱い霧雨
全天の8割程度の雲 雲底高度 430m
少しの積乱雲 雲底高度 730m
TAF GLRB 231100Z 2312/2412 22010KT 9999 BKN020
TEMPO 2315/2319 BKN022 FEW027CB
BECMG 2321/2323 VRB02KT 8000 -DZ BKN014 FEW024CB